createdAt,value
2019-03-02T00:01:02.317Z,14.37
2019-03-02T00:03:34.690Z,13.90
2019-03-02T00:06:02.695Z,14.23
2019-03-02T00:08:32.028Z,12.63
2019-03-02T00:11:01.437Z,13.67
2019-03-02T00:13:30.847Z,13.43
2019-03-02T00:16:00.888Z,13.47
2019-03-02T00:18:30.391Z,13.17
2019-03-02T00:20:59.696Z,14.20
2019-03-02T00:23:29.068Z,13.93
2019-03-02T00:25:58.388Z,14.53
2019-03-02T00:28:27.690Z,14.30
2019-03-02T00:30:57.806Z,14.63
2019-03-02T00:33:27.938Z,15.23
2019-03-02T00:35:57.313Z,14.27
2019-03-02T00:38:26.632Z,14.83
2019-03-02T00:40:56.048Z,13.30
2019-03-02T00:43:27.082Z,14.57
2019-03-02T00:45:57.482Z,14.63
2019-03-02T00:48:26.920Z,14.27
2019-03-02T00:50:56.280Z,15.40
2019-03-02T00:53:25.591Z,16.13
2019-03-02T00:55:55.002Z,15.93
2019-03-02T00:58:25.592Z,15.80
2019-03-02T01:00:55.503Z,14.77
2019-03-02T01:03:24.870Z,15.47
2019-03-02T01:05:54.240Z,14.93
2019-03-02T01:08:23.867Z,14.77
2019-03-02T01:10:54.804Z,15.23
2019-03-02T01:13:24.229Z,17.10
2019-03-02T01:15:53.665Z,16.47
2019-03-02T01:18:22.987Z,16.83
2019-03-02T01:20:52.335Z,17.43
2019-03-02T01:23:23.749Z,16.30
2019-03-02T01:25:52.764Z,18.17
2019-03-02T01:28:22.088Z,17.67
2019-03-02T01:30:52.065Z,17.60
2019-03-02T01:33:21.383Z,18.77
2019-03-02T01:35:53.938Z,17.30
2019-03-02T01:38:22.869Z,18.13
2019-03-02T01:40:52.207Z,18.33
2019-03-02T01:43:22.004Z,18.47
2019-03-02T01:45:51.419Z,18.13
2019-03-02T01:48:22.876Z,18.27
2019-03-02T01:50:51.885Z,18.63
2019-03-02T01:53:21.231Z,19.23
2019-03-02T01:55:50.633Z,20.23
2019-03-02T01:58:20.166Z,19.37
2019-03-02T02:00:50.016Z,19.30
2019-03-02T02:03:19.558Z,19.93
2019-03-02T02:05:48.995Z,18.90
2019-03-02T02:08:18.333Z,20.33
2019-03-02T02:10:47.631Z,20.00
2019-03-02T02:13:16.996Z,20.90
2019-03-02T02:15:46.346Z,19.27
2019-03-02T02:18:15.648Z,19.60
2019-03-02T02:20:46.860Z,19.27
2019-03-02T02:23:16.033Z,20.73
2019-03-02T02:25:45.361Z,20.37
2019-03-02T02:28:14.643Z,19.63
2019-03-02T02:30:44.105Z,21.80
2019-03-02T02:33:13.518Z,21.10
2019-03-02T02:35:42.819Z,21.13
2019-03-02T02:38:16.049Z,22.13
2019-03-02T02:40:43.288Z,21.57
2019-03-02T02:43:20.485Z,20.20
2019-03-02T02:45:43.749Z,21.77
2019-03-02T02:48:13.067Z,22.73
2019-03-02T02:50:43.084Z,22.80
2019-03-02T02:53:12.561Z,23.03
2019-03-02T02:55:42.273Z,21.83
2019-03-02T02:58:12.603Z,22.77
2019-03-02T03:00:42.717Z,22.30
2019-03-02T03:03:15.879Z,23.33
2019-03-02T03:05:43.068Z,24.27
2019-03-02T03:08:12.404Z,25.17
2019-03-02T03:10:42.890Z,25.43
2019-03-02T03:13:12.338Z,24.97
2019-03-02T03:15:46.538Z,24.73
2019-03-02T03:18:15.936Z,24.43
2019-03-02T03:20:48.934Z,25.70
2019-03-02T03:23:20.246Z,26.60
2019-03-02T03:25:56.141Z,26.83
2019-03-02T03:28:18.524Z,25.90
2019-03-02T03:30:48.123Z,25.20
2019-03-02T03:33:17.435Z,26.17
2019-03-02T03:35:46.828Z,26.63
2019-03-02T03:38:16.275Z,27.77
2019-03-02T03:40:45.633Z,30.60
2019-03-02T03:43:15.023Z,27.30
2019-03-02T03:45:45.045Z,27.93
2019-03-02T03:48:17.950Z,26.90
2019-03-02T03:50:48.078Z,30.00
2019-03-02T03:53:16.651Z,28.73
2019-03-02T03:55:45.935Z,30.83
2019-03-02T03:58:15.319Z,28.73
2019-03-02T04:00:44.599Z,29.97
2019-03-02T04:03:14.998Z,30.03
2019-03-02T04:05:47.091Z,29.67
2019-03-02T04:08:15.543Z,30.30
2019-03-02T04:10:44.833Z,31.60
2019-03-02T04:13:14.161Z,31.20
2019-03-02T04:15:43.635Z,30.70
2019-03-02T04:18:50.126Z,30.77
2019-03-02T04:21:23.449Z,30.50
2019-03-02T04:27:17.755Z,31.00
2019-03-02T04:29:49.915Z,31.57
2019-03-02T04:32:18.158Z,33.77
2019-03-02T04:34:47.486Z,34.10
2019-03-02T04:37:20.280Z,33.27
2019-03-02T04:39:49.986Z,33.33
2019-03-02T04:42:18.985Z,31.57
2019-03-02T04:44:48.667Z,34.17
2019-03-02T04:47:18.027Z,35.13
2019-03-02T04:49:51.082Z,35.00
2019-03-02T04:52:18.572Z,36.10
2019-03-02T04:54:47.936Z,35.83
2019-03-02T04:57:17.364Z,34.73
2019-03-02T04:59:46.696Z,37.17
2019-03-02T05:02:16.756Z,35.60
2019-03-02T05:04:47.191Z,37.43
2019-03-02T05:07:16.603Z,36.73
2019-03-02T05:09:48.647Z,39.33
2019-03-02T05:12:17.056Z,37.90
2019-03-02T05:14:46.469Z,40.53
2019-03-02T05:17:15.808Z,39.40
2019-03-02T05:19:45.203Z,37.67
2019-03-02T05:22:15.479Z,41.90
2019-03-02T05:24:45.657Z,37.70
2019-03-02T05:27:14.983Z,42.23
2019-03-02T05:29:44.316Z,38.73
2019-03-02T05:32:15.986Z,38.53
2019-03-02T05:34:44.735Z,37.17
2019-03-02T05:37:14.056Z,40.03
2019-03-02T05:39:43.391Z,36.23
2019-03-02T05:42:13.608Z,42.47
2019-03-02T05:44:43.805Z,38.10
2019-03-02T05:47:13.238Z,37.97
2019-03-02T05:49:42.567Z,37.13
2019-03-02T05:52:14.479Z,37.90
2019-03-02T05:54:43.030Z,36.80
2019-03-02T05:57:12.433Z,36.73
2019-03-02T05:59:41.737Z,37.13
2019-03-02T06:02:13.968Z,42.13
2019-03-02T06:04:42.206Z,37.10
2019-03-02T06:07:11.547Z,36.90
2019-03-02T06:09:40.846Z,38.80
2019-03-02T06:12:11.916Z,39.47
2019-03-02T06:14:41.209Z,37.33
2019-03-02T06:17:10.573Z,39.27
2019-03-02T06:19:39.922Z,38.17
2019-03-02T06:22:09.298Z,38.60
2019-03-02T06:24:41.033Z,38.47
2019-03-02T06:27:10.937Z,35.87
2019-03-02T06:29:40.732Z,38.67
2019-03-02T06:32:10.109Z,38.13
2019-03-02T06:34:39.439Z,39.87
2019-03-02T06:37:08.811Z,40.07
2019-03-02T06:39:40.996Z,37.43
2019-03-02T06:42:09.820Z,35.53
2019-03-02T06:44:40.285Z,37.23
2019-03-02T06:47:09.615Z,36.63
2019-03-02T06:49:39.107Z,37.30
2019-03-02T06:52:08.420Z,33.17
2019-03-02T06:54:37.778Z,34.07
2019-03-02T06:57:07.120Z,34.23
2019-03-02T06:59:39.309Z,31.60
2019-03-02T07:02:07.613Z,33.93
2019-03-02T07:04:36.977Z,33.03
2019-03-02T07:07:06.417Z,36.03
2019-03-02T07:09:35.772Z,33.53
2019-03-02T07:12:05.913Z,35.87
2019-03-02T07:14:36.290Z,35.43
2019-03-02T07:17:05.716Z,37.03
2019-03-02T07:19:51.856Z,32.60
2019-03-02T07:22:22.091Z,32.17
2019-03-02T07:24:51.350Z,33.33
2019-03-02T07:27:20.760Z,33.97
2019-03-02T07:29:53.664Z,30.40
2019-03-02T07:32:21.378Z,35.30
2019-03-02T07:34:50.875Z,36.93
2019-03-02T07:37:20.236Z,35.57
2019-03-02T07:39:49.706Z,32.50
2019-03-02T07:42:19.037Z,34.33
2019-03-02T07:44:48.484Z,34.17
2019-03-02T07:47:20.617Z,31.57
2019-03-02T07:49:49.856Z,31.97
2019-03-02T07:52:20.079Z,30.67
2019-03-02T07:54:58.140Z,27.83
2019-03-02T07:57:20.444Z,29.77
2019-03-02T07:59:49.811Z,28.03
2019-03-02T08:02:19.214Z,32.17
2019-03-02T08:04:48.554Z,29.07
2019-03-02T08:07:17.912Z,30.70
2019-03-02T08:09:47.337Z,30.43
2019-03-02T08:12:16.717Z,30.97
2019-03-02T08:14:47.842Z,27.27
2019-03-02T08:17:17.212Z,31.50
2019-03-02T08:19:48.571Z,31.17
2019-03-02T08:22:17.632Z,29.47
2019-03-02T08:24:47.046Z,28.40
2019-03-02T08:27:16.471Z,28.07
2019-03-02T08:29:45.913Z,28.63
2019-03-02T08:32:17.707Z,26.27
2019-03-02T08:34:47.091Z,26.17
2019-03-02T08:37:16.625Z,26.93
2019-03-02T08:39:46.539Z,27.07
2019-03-02T08:42:17.254Z,25.30
2019-03-02T08:44:46.653Z,26.57
2019-03-02T08:47:16.093Z,26.40
2019-03-02T08:49:45.419Z,26.80
2019-03-02T08:52:14.817Z,27.53
2019-03-02T08:54:44.209Z,26.23
2019-03-02T08:57:13.603Z,25.17
2019-03-02T08:59:42.986Z,29.97
2019-03-02T09:02:12.452Z,31.10
2019-03-02T09:04:41.787Z,28.90
2019-03-02T09:07:11.412Z,26.97
2019-03-02T09:09:41.483Z,25.90
2019-03-02T09:12:10.910Z,25.77
2019-03-02T09:14:40.247Z,25.73
2019-03-02T09:17:09.695Z,27.37
2019-03-02T09:19:39.131Z,26.50
2019-03-02T09:22:08.512Z,26.47
2019-03-02T09:24:37.953Z,24.37
2019-03-02T09:27:34.924Z,25.27
2019-03-02T09:30:08.805Z,27.03
2019-03-02T09:32:38.148Z,24.77
2019-03-02T09:35:07.922Z,27.50
2019-03-02T09:37:37.337Z,24.63
2019-03-02T09:40:10.116Z,27.50
2019-03-02T09:42:40.497Z,25.93
2019-03-02T09:45:11.528Z,26.03
2019-03-02T09:47:43.916Z,26.40
2019-03-02T09:50:14.426Z,23.63
2019-03-02T09:52:43.886Z,23.87
2019-03-02T09:55:14.768Z,26.17
2019-03-02T09:57:47.529Z,23.60
2019-03-02T10:00:24.070Z,24.87
2019-03-02T10:02:52.134Z,25.53
2019-03-02T10:05:21.565Z,24.90
2019-03-02T10:07:50.938Z,24.63
2019-03-02T10:10:21.045Z,24.33
2019-03-02T10:12:53.110Z,24.60
2019-03-02T10:15:22.460Z,24.67
2019-03-02T10:17:51.820Z,24.27
2019-03-02T10:20:21.241Z,22.17
2019-03-02T10:22:50.612Z,24.27
2019-03-02T10:25:20.046Z,23.20
2019-03-02T10:27:49.358Z,26.67
2019-03-02T10:30:22.159Z,21.37
2019-03-02T10:32:52.040Z,22.70
2019-03-02T10:35:21.488Z,23.97
2019-03-02T10:37:50.988Z,23.10
2019-03-02T10:40:20.375Z,23.87
2019-03-02T10:42:49.795Z,24.10
2019-03-02T10:45:19.200Z,22.73
2019-03-02T10:47:48.924Z,22.77
2019-03-02T10:50:23.553Z,21.63
2019-03-02T10:52:51.327Z,23.10
2019-03-02T10:55:21.113Z,23.07
2019-03-02T10:58:18.655Z,24.50
2019-03-02T11:00:48.038Z,25.73
2019-03-02T11:03:17.470Z,24.17
2019-03-02T11:06:15.039Z,24.93
2019-03-02T11:09:04.149Z,22.77
2019-03-02T11:11:58.144Z,21.10
2019-03-02T11:14:46.421Z,20.47
2019-03-02T11:17:55.707Z,24.30
2019-03-02T11:20:45.591Z,23.30
2019-03-02T11:23:32.692Z,24.60
2019-03-02T11:26:23.752Z,22.27
2019-03-02T11:29:17.766Z,21.90
2019-03-02T11:32:03.290Z,24.30
2019-03-02T11:34:53.932Z,22.67
2019-03-02T11:37:45.257Z,23.17
2019-03-02T11:40:48.638Z,23.37
2019-03-02T11:43:52.273Z,22.37
2019-03-02T11:47:20.873Z,23.40
2019-03-02T11:56:11.214Z,20.33
2019-03-02T11:58:58.447Z,20.67
2019-03-02T12:01:52.639Z,20.13
2019-03-02T12:04:44.916Z,20.50
2019-03-02T12:07:28.019Z,22.00
2019-03-02T12:10:34.907Z,21.17
2019-03-02T12:13:23.428Z,22.07
2019-03-02T12:19:32.325Z,20.60
2019-03-02T12:22:09.556Z,21.07
2019-03-02T12:24:58.485Z,21.07
2019-03-02T12:31:23.684Z,20.23
2019-03-02T12:37:35.416Z,20.40
2019-03-02T12:40:27.596Z,20.97
2019-03-02T12:43:08.669Z,20.77
2019-03-02T12:45:54.536Z,20.60
2019-03-02T12:48:57.555Z,19.93
2019-03-02T12:51:48.939Z,18.90
2019-03-02T12:54:39.229Z,21.93
2019-03-02T12:57:16.663Z,17.40
2019-03-02T13:00:00.521Z,19.10
2019-03-02T13:02:47.982Z,17.90
2019-03-02T13:05:37.700Z,18.83
2019-03-02T13:08:48.751Z,18.57
2019-03-02T13:11:49.098Z,17.13
2019-03-02T13:14:32.238Z,17.50
2019-03-02T13:17:09.793Z,16.33
2019-03-02T13:19:59.001Z,15.63
2019-03-02T13:25:44.289Z,16.57
2019-03-02T13:28:25.002Z,16.50
2019-03-02T13:31:14.230Z,16.00
2019-03-02T13:34:01.286Z,14.50
2019-03-02T13:37:35.602Z,14.07
2019-03-02T13:40:13.371Z,13.07
2019-03-02T13:43:04.513Z,13.43
2019-03-02T13:45:58.919Z,13.33
2019-03-02T13:49:09.795Z,13.60
2019-03-02T13:52:10.276Z,13.30
2019-03-02T13:54:59.245Z,12.27
2019-03-02T13:57:50.925Z,11.63
2019-03-02T14:00:33.033Z,10.80
2019-03-02T14:03:16.903Z,10.80
2019-03-02T14:06:17.776Z,9.80
2019-03-02T14:08:52.005Z,10.80
2019-03-02T14:11:39.777Z,10.27
2019-03-02T14:14:27.820Z,9.60
2019-03-02T14:17:32.370Z,9.47
2019-03-02T14:20:49.229Z,9.07
2019-03-02T14:23:34.986Z,9.07
2019-03-02T14:26:13.559Z,8.30
2019-03-02T14:29:08.080Z,8.30
2019-03-02T14:32:00.735Z,8.50
2019-03-02T14:34:49.214Z,7.77
2019-03-02T14:37:32.378Z,8.33
2019-03-02T14:40:29.444Z,7.87
2019-03-02T14:43:32.891Z,7.83
2019-03-02T14:46:33.319Z,8.77
2019-03-02T14:49:20.358Z,7.60
2019-03-02T14:52:23.515Z,8.57
2019-03-02T14:55:07.262Z,7.50
2019-03-02T14:57:56.749Z,8.00
2019-03-02T15:01:02.760Z,8.30
2019-03-02T15:03:50.561Z,10.33
2019-03-02T15:06:31.621Z,8.57
2019-03-02T15:09:08.801Z,8.73
2019-03-02T15:11:58.582Z,7.30
2019-03-02T15:14:42.912Z,8.27
2019-03-02T15:17:19.716Z,7.57
2019-03-02T15:20:06.511Z,8.50
2019-03-02T15:22:51.889Z,8.33
2019-03-02T15:25:40.234Z,8.00
2019-03-02T15:28:15.365Z,6.87
2019-03-02T15:30:52.140Z,8.30
2019-03-02T15:33:33.881Z,7.07
2019-03-02T15:36:16.930Z,6.77
2019-03-02T15:39:03.621Z,8.10
2019-03-02T15:41:51.988Z,7.20
2019-03-02T15:44:42.950Z,7.97
2019-03-02T15:47:30.342Z,7.30
2019-03-02T15:50:09.097Z,8.57
2019-03-02T15:53:03.387Z,8.07
2019-03-02T15:55:41.210Z,7.80
2019-03-02T15:58:59.801Z,8.87
2019-03-02T16:01:55.124Z,8.33
2019-03-02T16:04:36.894Z,8.10
2019-03-02T16:07:22.237Z,8.93
2019-03-02T16:10:22.761Z,9.10
2019-03-02T16:13:16.946Z,8.30
2019-03-02T16:16:13.013Z,9.73
2019-03-02T16:19:12.839Z,9.10
2019-03-02T16:21:57.163Z,9.40
2019-03-02T16:25:04.951Z,9.60
2019-03-02T16:27:48.323Z,12.23
2019-03-02T16:30:36.633Z,9.50
2019-03-02T16:33:23.359Z,8.93
2019-03-02T16:36:14.423Z,8.33
2019-03-02T16:39:06.893Z,8.50
2019-03-02T16:42:07.090Z,10.13
2019-03-02T16:44:54.676Z,9.77
2019-03-02T16:47:58.181Z,10.40
2019-03-02T16:50:50.025Z,9.63
2019-03-02T16:53:41.002Z,8.83
2019-03-02T16:56:31.657Z,10.47
2019-03-02T16:59:18.392Z,9.03
2019-03-02T17:02:05.072Z,8.87
2019-03-02T17:04:51.341Z,9.50
2019-03-02T17:07:58.802Z,9.67
2019-03-02T17:10:49.723Z,9.17
2019-03-02T17:13:33.560Z,8.83
2019-03-02T17:16:18.332Z,7.60
2019-03-02T17:18:54.573Z,7.23
2019-03-02T17:21:41.279Z,6.37
2019-03-02T17:24:29.661Z,6.77
2019-03-02T17:27:17.742Z,7.10
2019-03-02T17:29:54.312Z,8.07
2019-03-02T17:32:28.457Z,7.53
2019-03-02T17:35:21.011Z,8.47
2019-03-02T17:38:08.051Z,8.97
2019-03-02T17:40:56.316Z,10.00
2019-03-02T17:43:50.791Z,9.57
2019-03-02T17:46:37.760Z,9.13
2019-03-02T17:49:17.425Z,7.63
2019-03-02T17:52:15.499Z,6.87
2019-03-02T17:55:15.624Z,6.47
2019-03-02T17:57:56.188Z,6.37
2019-03-02T18:00:57.027Z,6.50
2019-03-02T18:03:39.198Z,7.50
2019-03-02T18:06:30.332Z,7.77
2019-03-02T18:09:17.066Z,7.63
2019-03-02T18:12:13.458Z,7.80
2019-03-02T18:15:01.726Z,7.63
2019-03-02T18:18:04.991Z,7.33
2019-03-02T18:20:37.427Z,6.73
2019-03-02T18:23:06.983Z,7.63
2019-03-02T18:25:36.398Z,6.97
2019-03-02T18:28:05.806Z,7.30
2019-03-02T18:30:38.750Z,7.03
2019-03-02T18:33:19.213Z,7.13
2019-03-02T18:35:48.658Z,7.27
2019-03-02T18:38:18.167Z,7.70
2019-03-02T18:40:47.496Z,7.40
2019-03-02T18:43:16.983Z,7.53
2019-03-02T18:45:46.457Z,8.30
2019-03-02T18:48:35.368Z,8.10
2019-03-02T18:51:15.108Z,8.13
2019-03-02T18:53:44.522Z,9.27
2019-03-02T18:56:13.976Z,9.57
2019-03-02T18:58:43.520Z,11.13
2019-03-02T19:01:13.392Z,11.07
2019-03-02T19:03:42.780Z,11.90
2019-03-02T19:06:12.308Z,12.27
2019-03-02T19:08:41.733Z,11.80
2019-03-02T19:11:11.174Z,10.83
2019-03-02T19:13:40.729Z,11.50
2019-03-02T19:16:11.747Z,11.13
2019-03-02T19:18:41.276Z,12.03
2019-03-02T19:21:10.640Z,10.50
2019-03-02T19:23:40.262Z,12.17
2019-03-02T19:26:10.715Z,11.93
2019-03-02T19:28:40.599Z,11.90
2019-03-02T19:31:10.044Z,12.63
2019-03-02T19:33:39.470Z,12.03
2019-03-02T19:36:08.845Z,12.77
2019-03-02T19:38:38.266Z,12.47
2019-03-02T19:41:07.751Z,13.10
2019-03-02T19:43:37.217Z,13.83
2019-03-02T19:46:06.821Z,12.83
2019-03-02T19:48:36.249Z,14.30
2019-03-02T19:51:05.658Z,13.17
2019-03-02T19:53:35.209Z,12.63
2019-03-02T19:56:04.627Z,13.77
2019-03-02T19:58:34.071Z,12.23
2019-03-02T20:01:03.590Z,13.93
2019-03-02T20:03:33.044Z,13.07
2019-03-02T20:06:02.402Z,12.27
2019-03-02T20:08:31.899Z,12.07
2019-03-02T20:11:01.393Z,12.53
2019-03-02T20:13:30.773Z,13.50
2019-03-02T20:16:00.172Z,11.57
2019-03-02T20:18:29.531Z,11.30
2019-03-02T20:20:58.946Z,12.07
2019-03-02T20:23:36.970Z,13.00
2019-03-02T20:25:59.394Z,11.50
2019-03-02T20:28:28.721Z,12.10
2019-03-02T20:30:58.135Z,12.27
2019-03-02T20:33:27.488Z,11.87
2019-03-02T20:35:56.893Z,12.70
2019-03-02T20:38:26.294Z,12.03
2019-03-02T20:45:05.261Z,10.57
2019-03-02T20:47:34.649Z,12.30
2019-03-02T20:50:04.309Z,11.33
2019-03-02T20:52:33.686Z,11.93
2019-03-02T20:55:03.030Z,11.93
2019-03-02T20:57:36.836Z,11.53
2019-03-02T21:00:08.457Z,12.57
2019-03-02T21:02:37.903Z,11.30
2019-03-02T21:05:09.229Z,12.00
2019-03-02T21:07:38.650Z,11.70
2019-03-02T21:10:09.954Z,11.40
2019-03-02T21:12:39.310Z,12.30
2019-03-02T21:15:12.693Z,11.13
2019-03-02T21:17:42.167Z,10.43
2019-03-02T21:20:12.442Z,10.33
2019-03-02T21:22:41.917Z,10.23
2019-03-02T21:25:11.630Z,10.03
2019-03-02T21:27:40.993Z,10.67
2019-03-02T21:30:12.270Z,9.30
2019-03-02T21:32:41.721Z,9.53
2019-03-02T21:35:11.416Z,10.53
2019-03-02T21:37:40.796Z,10.10
2019-03-02T21:40:18.258Z,9.53
2019-03-02T21:42:47.732Z,9.73
2019-03-02T21:45:18.136Z,10.47
2019-03-02T21:47:47.995Z,10.40
2019-03-02T21:50:19.286Z,10.13
2019-03-02T21:52:48.660Z,10.30
2019-03-02T21:55:18.040Z,10.33
2019-03-02T21:57:47.385Z,10.63
2019-03-02T22:00:18.846Z,11.20
2019-03-02T22:02:48.184Z,10.07
2019-03-02T22:05:17.566Z,11.23
2019-03-02T22:07:46.949Z,10.83
2019-03-02T22:10:19.433Z,11.47
2019-03-02T22:12:48.773Z,10.50
2019-03-02T22:15:18.160Z,11.10
2019-03-02T22:17:49.295Z,11.50
2019-03-02T22:20:18.741Z,10.93
2019-03-02T22:22:48.061Z,11.90
2019-03-02T22:25:17.936Z,11.53
2019-03-02T22:27:47.394Z,11.63
2019-03-02T22:30:18.995Z,11.70
2019-03-02T22:32:48.338Z,10.57
2019-03-02T22:35:17.873Z,9.73
2019-03-02T22:37:47.233Z,9.03
2019-03-02T22:40:18.255Z,9.10
2019-03-02T22:42:47.638Z,8.93
2019-03-02T22:45:17.079Z,8.80
2019-03-02T22:47:46.373Z,8.30
2019-03-02T22:50:17.742Z,7.30
2019-03-02T22:52:47.084Z,7.60
2019-03-02T22:55:17.275Z,7.53
2019-03-02T22:57:48.562Z,7.80
2019-03-02T23:00:45.478Z,7.37
2019-03-02T23:03:13.263Z,7.23
2019-03-02T23:05:42.595Z,7.87
2019-03-02T23:08:11.997Z,6.73
2019-03-02T23:10:41.297Z,6.90
2019-03-02T23:13:10.627Z,6.93
2019-03-02T23:15:39.968Z,6.50
2019-03-02T23:18:09.295Z,6.40
2019-03-02T23:20:38.654Z,5.83
2019-03-02T23:23:08.043Z,6.20
2019-03-02T23:25:37.336Z,6.40
2019-03-02T23:28:06.679Z,6.40
2019-03-02T23:30:35.997Z,6.40
2019-03-02T23:33:05.354Z,6.37
2019-03-02T23:35:34.702Z,5.17
2019-03-02T23:38:04.837Z,4.93
2019-03-02T23:40:34.225Z,6.10
2019-03-02T23:43:03.590Z,5.27
2019-03-02T23:45:32.901Z,4.83
2019-03-02T23:48:02.270Z,5.37
2019-03-02T23:50:31.695Z,5.20
2019-03-02T23:53:01.042Z,5.00
2019-03-02T23:55:30.427Z,4.67
2019-03-02T23:57:59.819Z,4.70
